Time;durP1;ratioP1;P1;durP2;ratioP2;P2;SDS_P1;SDS_P2;PMS_P1;PMS_P2;Temp;Humidity;BMP_temperature;BMP_pressure;BME280_temperature;BME280_humidity;BME280_pressure;Samples;Min_cycle;Max_cycle;Signal;HPM_P1;HPM_P2
2021/11/06 00:02:02;;;;;;;9.43;6.34;;;;;;;12.46;70.29;100359.36;372448;142;874539;-59
2021/11/06 00:03:05;;;;;;;10.21;6.15;;;;;;;12.31;69.91;100370.76;367003;144;857141;-59
2021/11/06 00:04:07;;;;;;;8.12;5.28;;;;;;;12.05;71.06;100384.77;366953;144;857221;-60
2021/11/06 00:05:09;;;;;;;8.61;5.36;;;;;;;12.13;70.19;100388.17;368266;144;867200;-60
2021/11/06 00:06:12;;;;;;;8.29;4.67;;;;;;;12.19;70.35;100371.70;366994;144;866657;-59
2021/11/06 00:07:14;;;;;;;8.93;4.96;;;;;;;12.24;70.21;100370.81;367581;144;858957;-59
2021/11/06 00:08:15;;;;;;;8.90;4.71;;;;;;;12.26;69.64;100375.97;368694;144;865136;-59
2021/11/06 00:09:17;;;;;;;9.94;5.70;;;;;;;12.15;70.00;100370.84;370254;144;858807;-60
2021/11/06 00:10:21;;;;;;;8.13;5.37;;;;;;;12.11;70.13;100376.94;367577;144;865999;-62
2021/11/06 00:11:23;;;;;;;7.69;4.93;;;;;;;12.27;70.18;100377.70;369724;144;857187;-60
2021/11/06 00:12:25;;;;;;;7.29;4.66;;;;;;;12.32;69.16;100375.08;366100;144;865346;-59
2021/11/06 00:13:27;;;;;;;7.57;4.16;;;;;;;12.35;69.12;100380.24;367236;144;864839;-60
2021/11/06 00:14:29;;;;;;;6.98;4.63;;;;;;;12.33;67.95;100381.99;366781;144;857132;-60
2021/11/06 00:15:31;;;;;;;9.41;4.55;;;;;;;12.36;68.21;100381.97;367319;144;857097;-60
2021/11/06 00:16:33;;;;;;;6.17;4.61;;;;;;;12.35;67.68;100380.24;365993;144;857565;-60
2021/11/06 00:17:36;;;;;;;7.89;4.72;;;;;;;12.33;68.47;100369.85;368602;144;858931;-62
2021/11/06 00:18:38;;;;;;;6.16;4.61;;;;;;;12.30;67.83;100374.23;367043;144;858172;-61
2021/11/06 00:19:40;;;;;;;7.81;4.81;;;;;;;12.01;68.44;100375.28;367082;144;857367;-61
2021/11/06 00:20:42;;;;;;;9.29;5.47;;;;;;;12.03;69.20;100369.22;363659;146;865676;-60
2021/11/06 00:21:43;;;;;;;8.41;4.78;;;;;;;12.00;68.79;100369.25;362505;147;857973;-62
2021/11/06 00:22:46;;;;;;;7.30;4.52;;;;;;;11.99;69.47;100376.13;359682;147;864831;-61
2021/11/06 00:23:48;;;;;;;10.74;4.48;;;;;;;12.02;69.16;100377.00;360460;147;858066;-59
2021/11/06 00:24:49;;;;;;;7.34;5.20;;;;;;;12.02;68.77;100380.48;362490;147;865469;-59
2021/11/06 00:25:51;;;;;;;13.99;5.16;;;;;;;11.95;69.12;100308.70;361706;146;865622;-59
2021/11/06 00:26:53;;;;;;;7.85;5.01;;;;;;;11.95;69.12;100308.70;362048;147;868463;-62
2021/11/06 00:27:55;;;;;;;12.14;5.16;;;;;;;12.04;69.29;100378.73;362856;147;857441;-60
2021/11/06 00:28:57;;;;;;;7.39;4.95;;;;;;;12.03;68.51;100384.80;364675;146;866233;-60
2021/11/06 00:29:59;;;;;;;7.77;5.13;;;;;;;12.03;68.30;100378.73;364528;147;857742;-60
2021/11/06 00:31:01;;;;;;;9.00;4.83;;;;;;;11.99;68.30;100370.09;363775;147;857219;-59
2021/11/06 00:32:04;;;;;;;6.42;4.64;;;;;;;11.95;68.57;100378.77;364237;146;857012;-60
2021/11/06 00:33:05;;;;;;;8.31;4.65;;;;;;;11.79;69.00;100375.39;362877;146;866801;-60
2021/11/06 00:34:07;;;;;;;8.12;5.01;;;;;;;11.78;68.97;100386.64;360288;147;864797;-60
2021/11/06 00:35:09;;;;;;;8.59;4.64;;;;;;;11.77;69.19;100387.52;362141;147;857321;-60
2021/11/06 00:36:11;;;;;;;8.21;5.31;;;;;;;11.48;69.87;100394.56;361979;146;865383;-59
2021/11/06 00:37:13;;;;;;;8.80;4.91;;;;;;;11.51;70.30;100391.11;361143;147;860216;-61
2021/11/06 00:38:15;;;;;;;8.64;4.15;;;;;;;11.49;70.20;100395.44;362980;146;865791;-60
2021/11/06 00:39:17;;;;;;;5.61;3.78;;;;;;;11.46;70.46;100396.30;363222;147;866196;-59
2021/11/06 00:40:19;;;;;;;6.92;3.89;;;;;;;11.50;70.32;100394.57;360412;147;866396;-59
2021/11/06 00:41:21;;;;;;;7.39;3.61;;;;;;;;;;359711;147;857192;-59
2021/11/06 00:42:24;;;;;;;7.51;4.01;;;;;;;;;;363986;147;857219;-61
2021/11/06 00:43:25;;;;;;;7.75;3.79;;;;;;;;;;363495;147;864796;-61
2021/11/06 00:44:27;;;;;;;6.39;4.05;;;;;;;;;;364228;147;864771;-61
2021/11/06 00:45:28;;;;;;;8.15;3.94;;;;;;;;;;362375;147;864953;-60
2021/11/06 00:46:30;;;;;;;7.46;4.08;;;;;;;;;;364162;147;857303;-60
2021/11/06 00:47:32;;;;;;;5.96;4.30;;;;;;;;;;362793;147;857217;-60
2021/11/06 00:48:33;;;;;;;5.92;3.89;;;;;;;;;;356075;150;859558;-59
2021/11/06 00:49:35;;;;;;;8.40;4.53;;;;;;;;;;354154;147;858997;-59
2021/11/06 00:50:37;;;;;;;8.43;4.87;;;;;;;;;;362641;146;859863;-60
2021/11/06 00:51:39;;;;;;;6.91;4.55;;;;;;;;;;364322;147;860228;-61
2021/11/06 00:52:41;;;;;;;7.98;4.47;;;;;;;;;;364821;146;864399;-60
2021/11/06 00:53:42;;;;;;;7.87;4.90;;;;;;;;;;362936;146;856858;-59
2021/11/06 00:54:44;;;;;;;7.09;4.94;;;;;;;;;;360920;147;856402;-61
2021/11/06 00:55:45;;;;;;;9.48;4.96;;;;;;;;;;365445;147;857771;-62
2021/11/06 00:56:47;;;;;;;7.61;4.88;;;;;;;;;;360875;146;857675;-60
2021/11/06 00:57:49;;;;;;;6.94;4.73;;;;;;;;;;362288;146;866563;-59
2021/11/06 00:58:50;;;;;;;9.54;5.31;;;;;;;;;;359762;147;858805;-59
2021/11/06 00:59:52;;;;;;;9.65;5.31;;;;;;;;;;362460;146;857563;-59
2021/11/06 01:00:54;;;;;;;8.43;4.81;;;;;;;;;;364455;146;857228;-59
2021/11/06 01:01:55;;;;;;;9.80;5.24;;;;;;;;;;360067;147;864774;-59
2021/11/06 01:02:57;;;;;;;6.68;4.45;;;;;;;;;;359468;148;865003;-59
2021/11/06 01:03:59;;;;;;;6.71;5.17;;;;;;;;;;358770;148;857280;-60
2021/11/06 01:05:00;;;;;;;11.22;5.64;;;;;;;;;;356602;147;865762;-59
2021/11/06 01:06:02;;;;;;;7.66;4.94;;;;;;;;;;359197;147;859022;-59
2021/11/06 01:07:04;;;;;;;8.82;5.46;;;;;;;;;;359378;146;864920;-59
2021/11/06 01:08:06;;;;;;;9.97;5.75;;;;;;;;;;358236;149;857262;-60
2021/11/06 01:09:07;;;;;;;7.64;5.39;;;;;;;;;;356470;147;859602;-59
2021/11/06 01:10:10;;;;;;;8.54;4.91;;;;;;;;;;356693;148;866544;-59
2021/11/06 01:11:12;;;;;;;9.87;5.56;;;;;;;;;;358915;148;857292;-60
2021/11/06 01:12:14;;;;;;;6.72;4.89;;;;;;;;;;358983;147;865726;-59
2021/11/06 01:13:17;;;;;;;8.71;5.34;;;;;;;;;;355234;147;858959;-61
2021/11/06 01:14:18;;;;;;;10.10;5.85;;;;;;;;;;356847;147;864948;-59
2021/11/06 01:15:20;;;;;;;9.76;5.17;;;;;;;;;;358483;148;857225;-59
2021/11/06 01:16:22;;;;;;;8.96;5.83;;;;;;;;;;356523;148;866227;-59
2021/11/06 01:17:24;;;;;;;8.72;5.66;;;;;;;;;;358473;148;859043;-60
2021/11/06 01:18:25;;;;;;;9.49;5.72;;;;;;;;;;359303;147;858853;-59
2021/11/06 01:19:27;;;;;;;7.44;4.94;;;;;;;;;;358434;147;865452;-59
2021/11/06 01:20:30;;;;;;;8.54;5.78;;;;;;;;;;358949;148;857350;-60
2021/11/06 01:21:32;;;;;;;9.50;5.41;;;;;;;;;;357649;147;857340;-60
2021/11/06 01:22:34;;;;;;;8.36;5.37;;;;;;;;;;358196;148;857335;-60
2021/11/06 01:23:36;;;;;;;7.09;5.10;;;;;;;;;;357345;147;866046;-59
2021/11/06 01:24:37;;;;;;;8.21;5.18;;;;;;;;;;358405;148;866065;-60
2021/11/06 01:25:39;;;;;;;9.02;5.25;;;;;;;;;;356455;149;857915;-60
2021/11/06 01:26:41;;;;;;;7.81;4.92;;;;;;;;;;356722;147;864935;-60
2021/11/06 01:27:43;;;;;;;6.29;4.77;;;;;;;;;;350938;150;867044;-59
2021/11/06 01:28:45;;;;;;;10.19;5.22;;;;;;;;;;352355;150;858333;-59
2021/11/06 01:29:48;;;;;;;6.80;4.69;;;;;;;;;;359382;147;859392;-60
2021/11/06 01:30:49;;;;;;;8.13;4.83;;;;;;;;;;358866;147;857313;-59
2021/11/06 01:31:51;;;;;;;6.41;4.89;;;;;;;;;;359105;147;857955;-59
2021/11/06 01:32:53;;;;;;;7.22;4.89;;;;;;;;;;357831;149;864708;-61
2021/11/06 01:33:54;;;;;;;6.17;4.67;;;;;;;;;;359119;148;857251;-59
2021/11/06 01:34:56;;;;;;;8.80;4.66;;;;;;;;;;359293;147;866258;-61
2021/11/06 01:35:57;;;;;;;7.97;4.71;;;;;;;;;;359515;148;859067;-59
2021/11/06 01:36:59;;;;;;;5.41;4.33;;;;;;;;;;362022;148;859614;-59
2021/11/06 01:38:01;;;;;;;7.62;4.77;;;;;;;;;;360464;147;865516;-60
2021/11/06 01:39:03;;;;;;;6.06;4.00;;;;;;;;;;360207;147;857828;-60
2021/11/06 01:40:05;;;;;;;6.67;4.69;;;;;;;;;;359299;149;857241;-59
2021/11/06 01:41:07;;;;;;;8.53;4.15;;;;;;;;;;359542;148;864925;-60
2021/11/06 01:42:09;;;;;;;5.82;4.11;;;;;;;;;;359517;147;865739;-60
2021/11/06 01:43:10;;;;;;;6.26;4.65;;;;;;;;;;358658;148;865503;-61
2021/11/06 01:44:12;;;;;;;5.51;4.16;;;;;;;;;;359540;148;866050;-59
2021/11/06 01:45:14;;;;;;;7.43;4.29;;;;;;;;;;356628;147;864773;-59
2021/11/06 01:46:17;;;;;;;8.07;4.26;;;;;;;;;;359337;148;857269;-60
2021/11/06 01:47:18;;;;;;;7.44;4.27;;;;;;;;;;358917;147;859304;-59
2021/11/06 01:48:20;;;;;;;5.47;4.29;;;;;;;;;;358830;148;857745;-60
2021/11/06 01:49:22;;;;;;;6.75;4.35;;;;;;;;;;359820;147;857096;-59
2021/11/06 01:50:24;;;;;;;8.21;4.27;;;;;;;;;;358350;148;857266;-59
2021/11/06 01:51:26;;;;;;;6.49;4.01;;;;;;;;;;360566;147;859202;-59
2021/11/06 01:52:28;;;;;;;7.98;3.99;;;;;;;;;;359719;149;866103;-59
2021/11/06 01:53:29;;;;;;;9.05;4.41;;;;;;;;;;359394;147;859821;-61
2021/11/06 01:54:31;;;;;;;5.71;3.96;;;;;;;;;;361129;148;857348;-62
2021/11/06 01:55:32;;;;;;;6.06;4.28;;;;;;;;;;358317;147;860849;-60
2021/11/06 01:56:35;;;;;;;5.47;3.89;;;;;;;;;;357931;147;866078;-59
2021/11/06 01:57:37;;;;;;;6.64;4.13;;;;;;;;;;358685;148;865597;-59
2021/11/06 01:58:39;;;;;;;9.00;4.17;;;;;;;;;;356361;147;857394;-60
2021/11/06 01:59:40;;;;;;;6.74;4.58;;;;;;;;;;353364;150;857767;-59
2021/11/06 02:00:42;;;;;;;5.82;3.96;;;;;;;;;;354249;150;863911;-59
2021/11/06 02:01:44;;;;;;;8.36;3.74;;;;;;;;;;354755;147;857851;-62
2021/11/06 02:02:46;;;;;;;6.33;4.07;;;;;;;;;;358785;147;857235;-62
2021/11/06 02:03:48;;;;;;;6.95;4.09;;;;;;;;;;364113;147;857233;-59
2021/11/06 02:04:50;;;;;;;7.33;4.19;;;;;;;;;;363818;147;866530;-60
2021/11/06 02:05:52;;;;;;;7.35;4.21;;;;;;;;;;360518;147;864725;-59
2021/11/06 02:06:53;;;;;;;6.90;3.82;;;;;;;;;;364079;147;864766;-60
2021/11/06 02:07:55;;;;;;;7.29;4.14;;;;;;;;;;363449;146;864930;-60
2021/11/06 02:08:56;;;;;;;5.79;4.05;;;;;;;;;;363904;147;860223;-60
2021/11/06 02:09:59;;;;;;;6.40;3.88;;;;;;;;;;358906;147;858631;-60
2021/11/06 02:11:00;;;;;;;7.89;4.21;;;;;;;;;;362800;147;858230;-60
2021/11/06 02:12:02;;;;;;;6.71;4.84;;;;;;;;;;363543;146;858523;-61
2021/11/06 02:13:04;;;;;;;7.36;3.91;;;;;;;;;;365639;147;864821;-60
2021/11/06 02:14:06;;;;;;;5.00;3.59;;;;;;;;;;364551;147;858551;-59
2021/11/06 02:15:08;;;;;;;6.49;3.88;;;;;;;;;;362660;146;857801;-60
2021/11/06 02:16:11;;;;;;;4.86;3.73;;;;;;;;;;361775;147;865429;-60
2021/11/06 02:17:12;;;;;;;7.36;4.54;;;;;;;;;;363178;147;857961;-59
2021/11/06 02:18:14;;;;;;;6.24;4.19;;;;;;;;;;363678;146;859161;-60
2021/11/06 02:19:16;;;;;;;6.38;4.18;;;;;;;;;;360348;147;864881;-59
2021/11/06 02:20:19;;;;;;;5.07;3.50;;;;;;;;;;365786;146;856399;-60
2021/11/06 02:21:21;;;;;;;7.53;3.79;;;;;;;;;;363422;147;858099;-59
2021/11/06 02:22:22;;;;;;;5.66;3.55;;;;;;;;;;360457;147;857636;-61
2021/11/06 02:23:25;;;;;;;8.01;3.94;;;;;;;;;;362571;147;866381;-61
2021/11/06 02:24:27;;;;;;;6.97;3.60;;;;;;;;;;360897;147;865353;-59
2021/11/06 02:25:48;;;;;;;7.10;4.05;;;;;;;;;;357384;150;858272;-60
2021/11/06 02:26:50;;;;;;;6.84;4.35;;;;;;;;;;353131;148;857340;-63
2021/11/06 02:27:51;;;;;;;6.74;3.92;;;;;;;;;;351970;149;859757;-60
2021/11/06 02:28:54;;;;;;;6.46;4.27;;;;;;;;;;352770;148;858104;-61
2021/11/06 02:29:56;;;;;;;6.42;3.91;;;;;;;;;;354788;148;864710;-60
2021/11/06 02:30:57;;;;;;;5.79;3.81;;;;;;;;;;356328;148;865976;-60
2021/11/06 02:42:08;;;;;;;7.68;4.52;;;;;;;10.16;68.21;100500.86;375203;142;878992;-60
2021/11/06 02:43:10;;;;;;;6.74;4.07;;;;;;;10.08;68.66;100511.17;366883;144;859383;-60
2021/11/06 02:44:13;;;;;;;5.69;3.87;;;;;;;10.08;68.66;100511.17;366070;144;864731;-60
2021/11/06 02:45:15;;;;;;;6.71;3.55;;;;;;;10.11;67.43;100510.33;366087;144;857265;-59
2021/11/06 02:46:17;;;;;;;4.61;3.70;;;;;;;10.09;67.44;100496.53;366053;144;857704;-60
2021/11/06 02:47:18;;;;;;;5.32;3.61;;;;;;;;;;366137;144;857264;-60
2021/11/06 02:48:20;;;;;;;5.79;3.65;;;;;;;;;;366343;144;865284;-60
2021/11/06 02:49:22;;;;;;;4.31;3.13;;;;;;;;;;366006;144;857318;-59
2021/11/06 02:50:24;;;;;;;6.05;3.74;;;;;;;;;;366090;144;866525;-59
2021/11/06 02:51:25;;;;;;;6.11;3.62;;;;;;;;;;368576;144;857260;-60
2021/11/06 02:52:27;;;;;;;5.81;3.92;;;;;;;;;;369684;144;857533;-59
2021/11/06 02:53:28;;;;;;;5.08;3.96;;;;;;;;;;367468;144;858951;-60
2021/11/06 02:54:30;;;;;;;5.46;3.52;;;;;;;;;;366743;144;858939;-59
2021/11/06 02:55:32;;;;;;;5.59;3.95;;;;;;;;;;369752;144;865149;-59
2021/11/06 02:56:34;;;;;;;6.80;3.73;;;;;;;;;;369794;144;865206;-60
2021/11/06 02:57:36;;;;;;;6.83;4.07;;;;;;;;;;367818;144;858603;-61
2021/11/06 02:58:37;;;;;;;5.82;3.77;;;;;;;;;;366992;144;857323;-59
2021/11/06 02:59:39;;;;;;;5.89;3.99;;;;;;;;;;366763;144;864860;-61
2021/11/06 03:00:41;;;;;;;8.27;3.37;;;;;;;;;;364868;146;864947;-61
2021/11/06 03:01:43;;;;;;;5.19;3.68;;;;;;;;;;360777;146;864856;-60
2021/11/06 03:02:44;;;;;;;6.53;3.74;;;;;;;;;;361299;147;857590;-60
2021/11/06 03:03:46;;;;;;;7.04;4.02;;;;;;;;;;363076;146;857336;-60
2021/11/06 03:04:48;;;;;;;7.23;3.65;;;;;;;;;;362522;146;858379;-60
2021/11/06 03:05:49;;;;;;;5.22;3.87;;;;;;;;;;361566;147;858978;-60
2021/11/06 03:06:51;;;;;;;5.14;3.44;;;;;;;;;;362174;147;858956;-59
2021/11/06 03:07:53;;;;;;;5.56;3.56;;;;;;;;;;362112;146;864726;-61
2021/11/06 03:08:55;;;;;;;8.59;3.84;;;;;;;;;;362294;146;857152;-59
2021/11/06 06:05:41;;;;;;;11.48;6.91;;;;;;;6.23;80.06;100586.60;369437;142;872227;-57
2021/11/06 06:06:42;;;;;;;10.47;6.45;;;;;;;6.10;80.16;100593.22;361928;147;857394;-58
2021/11/06 06:07:45;;;;;;;8.47;5.19;;;;;;;6.10;80.16;100593.22;362929;147;858335;-59
2021/11/06 06:08:47;;;;;;;10.48;5.58;;;;;;;6.13;80.49;100600.11;363554;147;859112;-59
2021/11/06 06:09:49;;;;;;;9.04;4.62;;;;;;;6.19;80.36;100602.80;365078;147;857310;-60
2021/11/06 06:10:51;;;;;;;6.65;4.70;;;;;;;;;;354130;148;865955;-59
2021/11/06 06:11:52;;;;;;;7.09;4.42;;;;;;;;;;356159;147;860313;-59
2021/11/06 06:12:54;;;;;;;7.28;4.87;;;;;;;;;;364493;147;864852;-59
2021/11/06 06:13:56;;;;;;;9.85;4.93;;;;;;;;;;361487;147;864984;-58
2021/11/06 06:14:58;;;;;;;11.79;5.54;;;;;;;;;;361375;147;866798;-60
2021/11/06 06:16:00;;;;;;;8.97;5.13;;;;;;;;;;362851;146;857208;-58
2021/11/06 06:17:01;;;;;;;8.16;5.37;;;;;;;;;;359027;147;865392;-60
2021/11/06 06:18:03;;;;;;;9.47;5.26;;;;;;;;;;361204;147;858543;-59
2021/11/06 06:19:04;;;;;;;10.16;5.50;;;;;;;;;;363579;147;858523;-62
2021/11/06 06:20:07;;;;;;;8.73;6.01;;;;;;;;;;361640;146;865218;-60
2021/11/06 06:21:08;;;;;;;8.75;5.85;;;;;;;;;;356065;147;857378;-60
2021/11/06 06:22:10;;;;;;;9.46;5.46;;;;;;;;;;356323;147;856397;-60
2021/11/06 06:23:12;;;;;;;7.89;5.06;;;;;;;;;;357522;148;866090;-61
2021/11/06 06:24:14;;;;;;;8.94;5.31;;;;;;;;;;357313;148;865642;-60
2021/11/06 06:25:15;;;;;;;8.96;5.62;;;;;;;;;;357119;148;864908;-62
2021/11/06 06:26:17;;;;;;;8.47;5.43;;;;;;;;;;356209;147;865016;-60
2021/11/06 06:27:19;;;;;;;9.00;5.43;;;;;;;;;;358369;148;858818;-63
2021/11/06 06:28:20;;;;;;;8.66;5.72;;;;;;;;;;356730;148;866852;-62
2021/11/06 06:29:22;;;;;;;7.87;5.49;;;;;;;;;;355882;147;859512;-61
2021/11/06 06:30:26;;;;;;;10.74;5.86;;;;;;;;;;357216;148;856956;-62
2021/11/06 06:31:28;;;;;;;10.42;5.70;;;;;;;;;;355798;148;857923;-62
2021/11/06 06:32:29;;;;;;;8.59;5.80;;;;;;;;;;356752;148;860221;-62
2021/11/06 06:33:31;;;;;;;9.97;6.36;;;;;;;;;;357713;147;858763;-61
2021/11/06 06:34:33;;;;;;;9.63;5.61;;;;;;;;;;355776;149;859855;-61
2021/11/06 06:35:35;;;;;;;8.84;6.11;;;;;;;;;;357220;148;866977;-61
2021/11/06 06:36:36;;;;;;;10.12;6.24;;;;;;;;;;356732;148;866061;-62
2021/11/06 06:37:38;;;;;;;10.01;6.21;;;;;;;;;;355626;149;857366;-62
2021/11/06 06:38:40;;;;;;;11.05;6.11;;;;;;;;;;348954;153;864179;-61
2021/11/06 06:39:41;;;;;;;10.21;5.95;;;;;;;;;;351029;150;864053;-61
2021/11/06 06:40:43;;;;;;;11.90;6.60;;;;;;;;;;355500;147;857427;-61
2021/11/06 06:41:45;;;;;;;9.67;5.81;;;;;;;;;;345582;153;864120;-61
2021/11/06 06:42:46;;;;;;;10.73;5.29;;;;;;;;;;356407;150;859052;-61
2021/11/06 06:43:48;;;;;;;7.91;5.49;;;;;;;;;;356586;147;866813;-62
2021/11/06 06:44:50;;;;;;;10.06;5.68;;;;;;;;;;356569;149;857161;-61
2021/11/06 06:45:52;;;;;;;8.71;5.91;;;;;;;;;;355999;147;865338;-62
2021/11/06 06:46:54;;;;;;;10.13;5.47;;;;;;;;;;356346;148;857184;-62
2021/11/06 06:47:56;;;;;;;7.88;5.76;;;;;;;;;;354871;149;857322;-62
2021/11/06 06:48:58;;;;;;;9.59;6.17;;;;;;;;;;357000;148;857322;-61
2021/11/06 06:50:00;;;;;;;8.19;5.74;;;;;;;;;;358440;148;865207;-61
2021/11/06 06:51:02;;;;;;;6.97;4.73;;;;;;;;;;355115;148;859731;-63
2021/11/06 06:52:04;;;;;;;8.74;5.35;;;;;;;;;;356230;149;857740;-61
2021/11/06 06:53:06;;;;;;;8.57;5.61;;;;;;;;;;358435;148;858212;-63
2021/11/06 06:54:08;;;;;;;7.65;5.51;;;;;;;;;;358467;148;857572;-62
2021/11/06 06:55:10;;;;;;;10.29;5.10;;;;;;;;;;336779;158;866980;-63
2021/11/06 06:56:13;;;;;;;12.06;5.83;;;;;;;;;;345990;152;857042;-61
2021/11/06 06:57:15;;;;;;;10.85;6.14;;;;;;;;;;354729;148;859129;-62
2021/11/06 06:58:16;;;;;;;7.31;5.24;;;;;;;;;;355974;147;865217;-63
2021/11/06 06:59:18;;;;;;;8.06;5.58;;;;;;;;;;354739;150;858658;-61
2021/11/06 07:00:20;;;;;;;10.21;5.65;;;;;;;;;;352682;152;864133;-62
2021/11/06 07:01:22;;;;;;;8.11;5.72;;;;;;;;;;355067;148;859380;-62
2021/11/06 07:02:24;;;;;;;8.88;5.37;;;;;;;;;;356603;148;856829;-60
2021/11/06 07:03:25;;;;;;;9.24;5.88;;;;;;;;;;362057;148;865904;-61
2021/11/06 07:04:27;;;;;;;7.92;5.21;;;;;;;;;;358969;147;867012;-61
2021/11/06 07:05:29;;;;;;;7.05;5.52;;;;;;;;;;357375;148;866534;-60
2021/11/06 07:06:30;;;;;;;10.43;5.74;;;;;;;;;;358781;150;865620;-60
2021/11/06 07:07:32;;;;;;;12.25;5.92;;;;;;;;;;359370;150;859535;-62
2021/11/06 07:08:34;;;;;;;8.78;5.91;;;;;;;;;;356124;147;865962;-60
2021/11/06 07:09:36;;;;;;;9.96;5.89;;;;;;;;;;356737;148;865058;-64
2021/11/06 07:10:37;;;;;;;13.57;6.31;;;;;;;;;;357883;150;866898;-63
2021/11/06 07:11:39;;;;;;;8.84;5.55;;;;;;;;;;355118;148;858767;-62
2021/11/06 07:12:41;;;;;;;8.16;5.76;;;;;;;;;;355882;148;866341;-59
2021/11/06 07:13:44;;;;;;;8.75;6.03;;;;;;;;;;355720;150;859385;-59
2021/11/06 07:14:45;;;;;;;8.16;5.53;;;;;;;;;;356255;151;857813;-60
2021/11/06 07:15:48;;;;;;;13.08;6.13;;;;;;;;;;356855;148;859036;-60
2021/11/06 07:16:49;;;;;;;8.71;5.03;;;;;;;;;;348585;152;866730;-56
2021/11/06 07:22:02;;;;;;;7.87;5.21;;;;;;;10.12;62.31;100651.78;378708;141;881500;-59
2021/11/06 07:23:04;;;;;;;6.14;4.59;;;;;;;10.00;62.05;100655.16;366722;144;857229;-58
2021/11/06 07:24:06;;;;;;;9.51;5.92;;;;;;;9.65;61.53;100658.38;367910;144;857381;-58
2021/11/06 07:25:08;;;;;;;9.07;5.90;;;;;;;9.75;61.91;100656.71;365991;144;864924;-59
2021/11/06 07:26:11;;;;;;;12.02;6.04;;;;;;;9.75;61.71;100655.01;366846;144;857221;-59
2021/11/06 07:27:13;;;;;;;8.79;5.23;;;;;;;9.74;61.81;100652.39;367355;144;857136;-60
2021/11/06 07:28:15;;;;;;;8.19;6.28;;;;;;;9.85;61.92;100655.06;365984;144;858642;-61
2021/11/06 07:29:16;;;;;;;8.43;5.89;;;;;;;9.91;61.34;100655.95;365978;147;859166;-59
2021/11/06 07:30:21;;;;;;;8.60;5.57;;;;;;;9.92;60.92;100651.66;365717;144;864858;-60
2021/11/06 07:31:22;;;;;;;7.89;5.62;;;;;;;9.94;61.12;100648.21;366069;144;858444;-60
2021/11/06 07:32:24;;;;;;;8.45;5.32;;;;;;;9.98;62.39;100646.52;366376;144;866401;-59
2021/11/06 07:33:26;;;;;;;7.24;5.17;;;;;;;9.99;61.39;100650.84;366015;144;865014;-58
2021/11/06 07:34:28;;;;;;;8.30;5.97;;;;;;;9.95;60.12;100649.09;367864;144;866957;-58
2021/11/06 07:35:30;;;;;;;6.31;4.83;;;;;;;10.01;60.88;100641.36;366044;144;857346;-59
2021/11/06 07:36:33;;;;;;;9.66;5.90;;;;;;;10.13;61.34;100650.05;366706;144;864790;-59
2021/11/06 07:37:36;;;;;;;9.39;6.15;;;;;;;10.12;60.70;100646.61;367639;144;858827;-59
2021/11/06 07:38:38;;;;;;;7.84;5.34;;;;;;;10.01;61.01;100658.59;367563;144;857727;-59
2021/11/06 07:39:39;;;;;;;6.95;4.61;;;;;;;10.15;60.59;100646.63;366340;144;866705;-59
2021/11/06 07:40:41;;;;;;;9.03;5.69;;;;;;;10.15;59.98;100646.63;363242;145;857470;-59
2021/11/06 07:41:44;;;;;;;8.80;5.67;;;;;;;10.12;60.02;100654.37;362432;147;856306;-58
2021/11/06 07:42:46;;;;;;;6.94;5.42;;;;;;;10.21;60.73;100645.78;362596;147;857315;-57
2021/11/06 07:43:48;;;;;;;8.07;5.51;;;;;;;10.30;60.37;100650.99;363248;147;857239;-58
2021/11/06 07:44:50;;;;;;;8.57;5.11;;;;;;;10.41;59.32;100652.80;363654;146;857394;-59
2021/11/06 07:45:52;;;;;;;9.47;5.19;;;;;;;10.02;59.43;100661.20;364730;147;857183;-59
2021/11/06 07:46:54;;;;;;;9.34;5.45;;;;;;;10.16;59.56;100663.00;361791;147;859301;-60
2021/11/06 07:47:56;;;;;;;8.29;5.24;;;;;;;10.23;60.22;100673.41;362672;147;857587;-58
2021/11/06 07:48:58;;;;;;;8.39;5.23;;;;;;;10.14;59.39;100682.83;364313;146;857823;-60
2021/11/06 07:50:00;;;;;;;7.83;5.67;;;;;;;10.14;59.39;100682.83;363225;147;857202;-60
2021/11/06 07:51:02;;;;;;;8.42;4.92;;;;;;;10.25;60.33;100669.97;362080;147;858177;-61
2021/11/06 07:52:04;;;;;;;8.27;4.99;;;;;;;;;;363669;145;858133;-61
2021/11/06 07:53:05;;;;;;;9.72;5.30;;;;;;;;;;356316;150;858064;-58
2021/11/06 07:54:07;;;;;;;9.91;5.60;;;;;;;;;;355005;149;857214;-62
2021/11/06 07:55:09;;;;;;;9.31;5.40;;;;;;;;;;361775;146;865914;-60
2021/11/06 09:43:55;;;;;;;4.56;3.17;;;;;;;9.32;57.74;100677.91;381597;138;880623;-60
2021/11/06 09:44:57;;;;;;;6.39;3.47;;;;;;;9.28;58.24;100682.20;374163;142;857286;-61
2021/11/06 09:45:59;;;;;;;4.53;3.52;;;;;;;9.18;57.04;100677.80;374412;139;857409;-59
2021/11/06 09:47:05;;;;;;;10.13;3.78;;;;;;;9.30;57.43;100684.78;374187;139;859349;-59
2021/11/06 09:48:06;;;;;;;5.85;3.98;;;;;;;9.50;57.62;100679.80;376197;141;857876;-60
2021/11/06 09:49:08;;;;;;;6.27;4.29;;;;;;;9.65;56.50;100679.06;377276;139;858994;-61
2021/11/06 09:50:13;;;;;;;6.24;3.79;;;;;;;9.86;57.13;100673.33;374469;136;856006;-59
2021/11/06 09:51:15;;;;;;;7.43;3.75;;;;;;;;;;369154;142;864868;-62
2021/11/06 09:52:19;;;;;;;6.25;3.35;;;;;;;;;;371294;142;857640;-60
2021/11/06 09:53:20;;;;;;;7.51;4.16;;;;;;;;;;371878;142;858692;-59
2021/11/06 09:54:22;;;;;;;4.90;3.58;;;;;;;;;;370973;142;858568;-57
2021/11/06 09:55:24;;;;;;;5.80;4.21;;;;;;;;;;368895;142;864882;-58
2021/11/06 09:56:29;;;;;;;5.30;3.64;;;;;;;;;;371713;142;864828;-62
2021/11/06 09:57:31;;;;;;;6.67;3.96;;;;;;;;;;370299;142;857393;-56
2021/11/06 09:58:33;;;;;;;5.86;3.48;;;;;;;;;;371191;144;857730;-57
2021/11/06 09:59:35;;;;;;;6.11;3.55;;;;;;;;;;369732;144;866173;-60
2021/11/06 10:00:37;;;;;;;8.74;3.73;;;;;;;;;;372986;141;865028;-56
2021/11/06 10:01:39;;;;;;;5.78;4.07;;;;;;;;;;371311;142;857344;-55
2021/11/06 10:02:41;;;;;;;5.41;3.66;;;;;;;;;;370151;142;857364;-56
2021/11/06 10:03:43;;;;;;;8.89;3.15;;;;;;;;;;371737;142;857613;-56
2021/11/06 10:04:45;;;;;;;5.71;3.57;;;;;;;;;;370369;142;864935;-56
2021/11/06 10:05:48;;;;;;;8.44;4.13;;;;;;;;;;370888;144;858354;-56
2021/11/06 10:06:49;;;;;;;5.87;3.59;;;;;;;;;;370693;142;858144;-56
2021/11/06 10:07:51;;;;;;;4.05;3.39;;;;;;;;;;371766;142;865729;-55
2021/11/06 10:08:53;;;;;;;4.83;4.08;;;;;;;;;;370189;142;858723;-57
2021/11/06 10:09:59;;;;;;;5.30;3.60;;;;;;;;;;369530;144;858482;-56
2021/11/06 10:11:11;;;;;;;6.52;4.24;;;;;;;;;;370765;142;858186;-55
2021/11/06 10:12:13;;;;;;;6.27;3.84;;;;;;;;;;370491;142;857354;-54
2021/11/06 10:13:14;;;;;;;5.47;3.57;;;;;;;;;;368648;144;857727;-57
2021/11/06 10:14:20;;;;;;;6.69;3.59;;;;;;;;;;368120;142;865093;-55
2021/11/06 10:15:22;;;;;;;5.26;3.66;;;;;;;;;;369218;142;857527;-56
2021/11/06 10:16:39;;;;;;;5.25;3.42;;;;;;;;;;364966;144;856405;-56
2021/11/06 10:17:42;;;;;;;4.34;3.04;;;;;;;;;;366208;142;857764;-56
2021/11/06 10:18:43;;;;;;;4.78;3.28;;;;;;;;;;371348;142;858372;-57
2021/11/06 10:19:50;;;;;;;6.52;3.11;;;;;;;;;;369087;144;866614;-56
2021/11/06 10:21:02;;;;;;;6.22;3.33;;;;;;;;;;361925;144;859026;-56
2021/11/06 10:22:14;;;;;;;5.01;3.62;;;;;;;;;;365790;144;858207;-56
2021/11/06 10:23:15;;;;;;;5.11;3.32;;;;;;;;;;368647;142;857763;-56
2021/11/06 10:24:18;;;;;;;5.63;3.34;;;;;;;;;;365323;147;857705;-57
2021/11/06 10:25:21;;;;;;;5.24;2.31;;;;;;;;;;364876;144;864845;-57
2021/11/06 10:26:25;;;;;;;4.23;2.84;;;;;;;;;;362038;144;857805;-56
2021/11/06 10:27:27;;;;;;;5.19;3.09;;;;;;;;;;363140;146;857251;-56
2021/11/06 10:28:29;;;;;;;3.95;3.00;;;;;;;;;;371589;142;865731;-55
2021/11/06 10:29:32;;;;;;;4.85;3.44;;;;;;;;;;371282;142;858299;-55
2021/11/06 10:30:36;;;;;;;4.92;3.26;;;;;;;;;;371241;143;859206;-56
2021/11/06 10:33:18;;;;;;;3.41;2.81;;;;;;;;;;334607;157;858098;-56
2021/11/06 10:34:20;;;;;;;4.54;2.96;;;;;;;;;;331511;159;857923;-56
2021/11/06 10:35:23;;;;;;;3.35;2.67;;;;;;;;;;331539;155;867132;-56
2021/11/06 10:36:27;;;;;;;4.52;2.57;;;;;;;;;;351552;149;858302;-55
2021/11/06 10:37:29;;;;;;;4.31;2.83;;;;;;;;;;352189;149;867372;-57
2021/11/06 10:38:30;;;;;;;3.79;2.77;;;;;;;;;;354038;151;857267;-55
2021/11/06 10:39:33;;;;;;;3.78;2.39;;;;;;;;;;352016;149;864856;-58
2021/11/06 11:14:23;;;;;;;4.80;3.07;;;;;;;13.34;43.89;100634.11;373982;142;870797;-57
2021/11/06 11:15:24;;;;;;;4.60;3.01;;;;;;;13.13;43.77;100630.78;367776;144;859848;-55
2021/11/06 11:16:29;;;;;;;4.20;3.11;;;;;;;12.37;45.34;100631.23;369711;144;857190;-55